Detalii statie ROAGROLTAL [00001D0B]

Toti senzorii

Date Temperatura solului [C]Precipitatii [mm]Voltaj baterie [mV]Leaf Wetness [Min]HC Air temperature [C]HC Relative humidity [%]Punctul de roua [C]
medieminmaxsumaultimatimpmedieminmaxmediemediemin
2018-12-09 15:00:00 2.3 2.2 2.4 0 7108 3.81 3.62 4.11 100 3.7 3.6
2018-12-09 16:00:00 2.4 2.4 2.5 0 7118 3.56 3.31 3.78 100 3.5 3.3
2018-12-09 17:00:00 2.4 2.3 2.5 0 6992 2.11 1.82 3.06 100 2 1.8
2018-12-09 18:00:00 2.3 2.3 2.4 0 6932 2.66 2.26 2.82 100 2.6 2.2
2018-12-09 19:00:00 2.3 2.2 2.4 0 6884 2.38 2.16 2.69 100 2.3 2.1
2018-12-09 20:00:00 2.3 2.2 2.4 0 6864 2.15 2.09 2.21 100 2.1 2
2018-12-09 21:00:00 2.2 2.2 2.3 0 6844 2.07 2 2.14 100 2 2
2018-12-09 22:00:00 2.2 2.2 2.3 0 6826 2.16 2.1 2.22 100 2.1 2.1
2018-12-09 23:00:00 2.2 2.2 2.3 0 6826 2.06 1.83 2.16 100 2 1.8
2018-12-10 00:00:00 2.2 2.2 2.3 0 6826 1.34 0.91 1.74 100 1.3 0.9
2018-12-10 01:00:00 2.2 2.2 2.3 0 6806 0.69 0.61 0.79 100 0.6 0.6
2018-12-10 02:00:00 2.2 2.1 2.3 0 6806 0.77 0.74 0.79 100 0.7 0.7
2018-12-10 03:00:00 2.2 2.1 2.4 0.2 6806 0.84 0.78 0.89 100 0.7 0.7
2018-12-10 04:00:00 2.2 2.1 2.3 0 6806 0.89 0.79 0.96 100 0.8 0.7
2018-12-10 05:00:00 2.2 2.1 2.3 0 6786 0.61 0.43 0.82 100 0.5 0.4
2018-12-10 06:00:00 2.1 2.1 2.3 0 6776 0.17 -0.18 0.41 100 0.1 0
2018-12-10 07:00:00 2.1 2.1 2.2 0 6786 -0.69 -0.99 -0.2 100 -0.5 -0.8
2018-12-10 08:00:00 2.1 2 2.3 0 6776 -0.98 -1.14 -0.63 100 -0.8 -1
2018-12-10 09:00:00 2 2 2.1 0 6796 -1.07 -1.28 -0.93 100 -0.9 -1.1
2018-12-10 10:00:00 2 2 2.1 0 6922 -1.1 -1.25 -0.91 100 -0.9 -1.1
2018-12-10 11:00:00 2.1 2 2.2 0 7176 -0.78 -1.16 -0.19 100 -0.6 -1
2018-12-10 12:00:00 2.2 2.1 2.4 0 7166 0.57 -0.08 0.97 100 0.5 0
2018-12-10 13:00:00 2.4 2.3 2.5 0 7118 1.27 0.96 1.65 100 1.2 0.9
2018-12-10 14:00:00 2.5 2.4 2.6 0 7264 2.71 1.72 3.88 100 2.6 1.7
2018-12-10 15:00:00 2.7 2.6 2.9 0 7254 4.19 3.59 4.57 100 4.1 3.5
2018-12-10 16:00:00 2.7 2.6 2.9 0 7166 3.38 3.11 3.66 100 3.3 3.1
2018-12-10 17:00:00 2.8 2.7 2.9 0 7060 2.45 1.98 2.97 100 2.4 1.9
2018-12-10 18:00:00 2.6 2.6 2.8 0 6972 1.99 1.78 2.26 100 1.9 1.7
2018-12-10 19:00:00 2.6 2.5 2.8 0 6904 1.92 1.6 2.25 100 1.8 1.6
2018-12-10 20:00:00 2.6 2.5 2.8 0 6884 1.29 1.17 1.55 100 1.2 1.1
2018-12-10 21:00:00 2.5 2.5 2.7 0 6864 0.98 0.87 1.15 100 0.9 0.8
2018-12-10 22:00:00 2.5 2.5 2.6 0 6854 1.02 0.92 1.23 100 0.9 0.9
2018-12-10 23:00:00 2.5 2.5 2.7 0 6854 0.82 0.08 1.23 100 0.7 0
2018-12-11 00:00:00 2.5 2.4 2.6 0 6854 -0.29 -0.65 0 100 -0.1 -0.5
2018-12-11 01:00:00 2.5 2.4 2.6 0 6844 -0.78 -0.96 -0.5 100 -0.6 -0.8
2018-12-11 02:00:00 2.4 2.3 2.5 0 6834 -1.06 -1.13 -0.95 100 -0.9 -1
2018-12-11 03:00:00 2.3 2.2 2.4 0 6834 -0.82 -0.95 -0.69 100 -0.7 -0.8
2018-12-11 04:00:00 2.2 2.2 2.3 0 6834 -0.62 -0.67 -0.58 100 -0.4 -0.5
2018-12-11 05:00:00 2.2 2.1 2.3 0 6816 -0.17 -0.56 0.61 100 0 -0.4
2018-12-11 06:00:00 2.1 2 2.3 0.2 6796 0.9 0.63 1.29 100 0.8 0.6
2018-12-11 07:00:00 2.1 2.1 2.3 0 6806 1.59 1.29 1.89 100 1.5 1.2
2018-12-11 08:00:00 2.1 2.1 2.3 0 6796 2.17 1.97 2.29 100 2.1 1.9
2018-12-11 09:00:00 2.1 2.1 2.3 0 6796 2.37 2.15 2.76 100 2.3 2.1
2018-12-11 10:00:00 2.2 2.1 2.3 0 6844 2.21 1.63 3.24 100 2.1 1.6
2018-12-11 11:00:00 2.3 2.3 2.4 0 6932 2.73 1.89 3.2 100 2.6 1.8
2018-12-11 12:00:00 2.4 2.3 2.6 0 7000 3.62 3.12 4.23 100 3.5 3.1
2018-12-11 13:00:00 2.6 2.6 2.7 0 7040 4.36 4.26 4.47 100 4.3 4.2
2018-12-11 14:00:00 2.7 2.7 2.9 0 7060 4.33 4.27 4.47 100 4.2 4.2